createdAt,value
2019-04-11T00:00:09.047Z,80.10
2019-04-11T00:01:08.047Z,80.12
2019-04-11T00:01:58.814Z,80.13
2019-04-11T00:02:49.815Z,80.15
2019-04-11T00:03:41.750Z,80.17
2019-04-11T00:04:32.310Z,80.17
2019-04-11T00:05:22.984Z,80.17
2019-04-11T00:06:12.709Z,80.17
2019-04-11T00:07:03.747Z,80.17
2019-04-11T00:07:54.307Z,80.21
2019-04-11T00:08:44.662Z,80.19
2019-04-11T00:09:35.215Z,80.20
2019-04-11T00:10:27.662Z,80.19
2019-04-11T00:11:17.984Z,80.20
2019-04-11T00:12:10.419Z,80.19
2019-04-11T00:13:01.247Z,80.20
2019-04-11T00:13:51.540Z,80.19
2019-04-11T00:14:42.166Z,80.20
2019-04-11T00:15:34.833Z,80.19
2019-04-11T00:16:25.453Z,80.20
2019-04-11T00:17:15.505Z,80.16
2019-04-11T00:18:06.168Z,80.16
2019-04-11T00:18:56.944Z,80.14
2019-04-11T00:19:47.484Z,80.14
2019-04-11T00:20:37.488Z,80.11
2019-04-11T00:21:28.765Z,80.09
2019-04-11T00:22:19.463Z,80.09
2019-04-11T00:23:08.760Z,80.07
2019-04-11T00:23:59.156Z,80.05
2019-04-11T00:24:51.269Z,80.04
2019-04-11T00:25:44.102Z,80.05
2019-04-11T00:26:33.839Z,80.04
2019-04-11T00:27:28.859Z,80.05
2019-04-11T00:28:25.799Z,80.08
2019-04-11T00:29:16.405Z,80.07
2019-04-11T00:30:08.092Z,80.08
2019-04-11T00:30:58.808Z,80.10
2019-04-11T00:31:49.577Z,80.10
2019-04-11T00:32:39.312Z,80.11
2019-04-11T00:33:30.023Z,80.12
2019-04-11T00:34:20.648Z,80.12
2019-04-11T00:35:11.230Z,80.12
2019-04-11T00:36:04.280Z,80.07
2019-04-11T00:36:58.879Z,80.05
2019-04-11T00:37:49.606Z,80.02
2019-04-11T00:38:40.316Z,79.97
2019-04-11T00:39:30.615Z,79.95
2019-04-11T00:40:21.551Z,79.91
2019-04-11T00:41:12.071Z,79.91
2019-04-11T00:42:04.109Z,79.89
2019-04-11T00:42:54.989Z,79.87
2019-04-11T00:43:46.907Z,79.88
2019-04-11T00:44:37.645Z,79.88
2019-04-11T00:45:28.744Z,79.87
2019-04-11T00:46:18.997Z,79.87
2019-04-11T00:47:11.004Z,79.89
2019-04-11T00:48:01.682Z,79.91
2019-04-11T00:48:52.894Z,79.90
2019-04-11T00:49:46.445Z,79.93
2019-04-11T00:50:37.257Z,79.96
2019-04-11T00:51:27.745Z,79.95
2019-04-11T00:52:18.155Z,79.96
2019-04-11T00:53:09.777Z,79.97
2019-04-11T00:54:00.599Z,79.96
2019-04-11T00:54:51.175Z,79.97
2019-04-11T00:55:41.876Z,79.98
2019-04-11T00:56:31.151Z,79.96
2019-04-11T00:57:23.057Z,79.98
2019-04-11T00:58:13.752Z,79.95
2019-04-11T00:59:03.430Z,79.95
2019-04-11T00:59:56.426Z,79.95
2019-04-11T01:00:47.146Z,79.95
2019-04-11T01:01:36.952Z,79.96
2019-04-11T01:02:27.824Z,79.94
2019-04-11T01:03:18.664Z,79.94
2019-04-11T01:04:09.653Z,79.97
2019-04-11T01:04:59.461Z,79.95
2019-04-11T01:05:50.016Z,79.96
2019-04-11T01:06:41.090Z,79.98
2019-04-11T01:07:33.167Z,79.97
2019-04-11T01:08:24.203Z,79.95
2019-04-11T01:09:16.136Z,79.93
2019-04-11T01:10:07.795Z,79.91
2019-04-11T01:11:00.477Z,79.92
2019-04-11T01:11:52.206Z,79.90
2019-04-11T01:12:44.679Z,79.91
2019-04-11T01:13:45.596Z,79.93
2019-04-11T01:14:25.830Z,79.93
2019-04-11T01:15:19.545Z,79.95
2019-04-11T01:16:18.626Z,79.96
2019-04-11T01:17:10.799Z,79.98
2019-04-11T01:18:01.478Z,79.99
2019-04-11T01:18:52.046Z,80.00
2019-04-11T01:19:42.982Z,80.05
2019-04-11T01:20:33.422Z,80.07
2019-04-11T01:21:24.277Z,80.08
2019-04-11T01:22:14.070Z,80.12
2019-04-11T01:23:06.841Z,80.12
2019-04-11T01:23:57.567Z,80.14
2019-04-11T01:24:48.163Z,80.15
2019-04-11T01:25:39.422Z,80.15
2019-04-11T01:26:30.036Z,80.15
2019-04-11T01:27:21.625Z,80.14
2019-04-11T01:28:12.211Z,80.12
2019-04-11T01:29:02.913Z,80.10
2019-04-11T01:29:54.424Z,80.06
2019-04-11T01:30:52.372Z,80.05
2019-04-11T01:31:44.221Z,80.02
2019-04-11T01:32:34.894Z,79.97
2019-04-11T01:33:25.392Z,79.95
2019-04-11T01:34:16.252Z,79.90
2019-04-11T01:35:06.894Z,79.90
2019-04-11T01:35:57.518Z,79.88
2019-04-11T01:36:47.583Z,79.85
2019-04-11T01:37:38.039Z,79.81
2019-04-11T01:38:28.814Z,79.81
2019-04-11T01:39:38.015Z,79.81
2019-04-11T01:40:29.892Z,79.79
2019-04-11T01:41:20.990Z,79.77
2019-04-11T01:42:11.264Z,79.77
2019-04-11T01:43:01.910Z,79.74
2019-04-11T01:43:56.273Z,79.75
2019-04-11T01:44:43.027Z,79.75
2019-04-11T01:45:33.705Z,79.72
2019-04-11T01:46:23.027Z,79.74
2019-04-11T01:47:16.559Z,79.73
2019-04-11T01:48:17.887Z,79.74
2019-04-11T01:49:16.389Z,79.76
2019-04-11T01:50:08.435Z,79.78
2019-04-11T01:50:59.093Z,79.78
2019-04-11T01:51:49.784Z,79.79
2019-04-11T01:52:39.872Z,79.79
2019-04-11T01:53:30.965Z,79.80
2019-04-11T01:54:21.668Z,79.82
2019-04-11T01:55:12.299Z,79.84
2019-04-11T01:56:03.097Z,79.82
2019-04-11T01:56:53.741Z,79.80
2019-04-11T01:57:44.870Z,79.79
2019-04-11T01:58:35.193Z,79.74
2019-04-11T01:59:25.240Z,79.74
2019-04-11T02:00:30.167Z,79.68
2019-04-11T02:01:41.064Z,79.65
2019-04-11T02:02:48.122Z,79.62
2019-04-11T02:03:57.372Z,79.60
2019-04-11T02:05:01.316Z,79.58
2019-04-11T02:05:52.141Z,79.53
2019-04-11T02:06:43.521Z,79.45
2019-04-11T02:07:34.351Z,79.38
2019-04-11T02:08:25.055Z,79.32
2019-04-11T02:09:15.919Z,79.27
2019-04-11T02:10:06.768Z,79.22
2019-04-11T02:10:57.472Z,79.18
2019-04-11T02:11:48.040Z,79.16
2019-04-11T02:12:39.388Z,79.15
2019-04-11T02:13:30.023Z,79.12
2019-04-11T02:14:21.060Z,79.11
2019-04-11T02:15:10.337Z,79.12
2019-04-11T02:16:01.467Z,79.10
2019-04-11T02:16:53.666Z,79.11
2019-04-11T02:17:43.747Z,79.13
2019-04-11T02:18:35.254Z,79.13
2019-04-11T02:19:25.917Z,79.14
2019-04-11T02:20:16.921Z,79.15
2019-04-11T02:21:07.554Z,79.16
2019-04-11T02:22:11.926Z,79.18
2019-04-11T02:23:23.288Z,79.19
2019-04-11T02:24:24.102Z,79.20
2019-04-11T02:25:34.100Z,79.19
2019-04-11T02:26:32.112Z,79.20
2019-04-11T02:27:27.419Z,79.21
2019-04-11T02:28:20.219Z,79.23
2019-04-11T02:29:09.571Z,79.24
2019-04-11T02:30:01.154Z,79.25
2019-04-11T02:30:54.172Z,79.27
2019-04-11T02:31:44.402Z,79.30
2019-04-11T02:32:34.438Z,79.35
2019-04-11T02:33:26.157Z,79.35
2019-04-11T02:34:16.020Z,79.38
2019-04-11T02:35:07.824Z,79.43
2019-04-11T02:35:58.109Z,79.44
2019-04-11T02:36:51.296Z,79.45
2019-04-11T02:37:42.050Z,79.45
2019-04-11T02:38:32.432Z,79.42
2019-04-11T02:39:22.930Z,79.40
2019-04-11T02:40:13.522Z,79.37
2019-04-11T02:41:03.518Z,79.36
2019-04-11T02:41:54.882Z,79.34
2019-04-11T02:42:45.651Z,79.35
2019-04-11T02:43:36.515Z,79.36
2019-04-11T02:44:42.411Z,79.40
2019-04-11T02:45:30.840Z,79.45
2019-04-11T02:46:17.606Z,79.46
2019-04-11T02:47:05.247Z,79.47
2019-04-11T02:47:50.637Z,79.49
2019-04-11T02:48:40.655Z,79.50
2019-04-11T02:49:31.166Z,79.49
2019-04-11T02:50:21.947Z,79.53
2019-04-11T02:51:12.474Z,79.53
2019-04-11T02:52:02.680Z,79.53
2019-04-11T02:52:52.978Z,79.56
2019-04-11T02:53:45.169Z,79.56
2019-04-11T02:54:34.289Z,79.57
2019-04-11T02:55:25.228Z,79.58
2019-04-11T02:56:14.918Z,79.59
2019-04-11T02:57:05.802Z,79.59
2019-04-11T02:57:57.640Z,79.60
2019-04-11T02:58:48.258Z,79.60
2019-04-11T02:59:38.949Z,79.61
2019-04-11T03:00:30.855Z,79.61
2019-04-11T03:01:20.039Z,79.62
2019-04-11T03:02:11.079Z,79.63
2019-04-11T03:03:01.565Z,79.62
2019-04-11T03:03:51.963Z,79.59
2019-04-11T03:04:42.424Z,79.59
2019-04-11T03:05:34.436Z,79.59
2019-04-11T03:06:23.499Z,79.62
2019-04-11T03:07:14.577Z,79.59
2019-04-11T03:08:09.228Z,79.60
2019-04-11T03:08:57.352Z,79.61
2019-04-11T03:09:48.824Z,79.59
2019-04-11T03:10:38.776Z,79.60
2019-04-11T03:11:30.363Z,79.59
2019-04-11T03:12:21.669Z,79.56
2019-04-11T03:13:12.672Z,79.56
2019-04-11T03:14:03.932Z,79.58
2019-04-11T03:15:10.837Z,79.58
2019-04-11T03:16:02.119Z,79.58
2019-04-11T03:16:46.209Z,79.59
2019-04-11T03:17:31.584Z,79.60
2019-04-11T03:18:35.567Z,79.60
2019-04-11T03:19:24.063Z,79.56
2019-04-11T03:20:13.066Z,79.52
2019-04-11T03:20:56.700Z,79.48
2019-04-11T03:21:43.880Z,79.45
2019-04-11T03:22:32.180Z,79.43
2019-04-11T03:23:23.538Z,79.41
2019-04-11T03:24:13.282Z,79.42
2019-04-11T03:25:06.010Z,79.40
2019-04-11T03:25:56.706Z,79.44
2019-04-11T03:26:46.367Z,79.43
2019-04-11T03:27:37.814Z,79.43
2019-04-11T03:28:31.285Z,79.44
2019-04-11T03:29:19.878Z,79.44
2019-04-11T03:30:15.016Z,79.46
2019-04-11T03:31:32.672Z,79.44
2019-04-11T03:32:34.622Z,79.43
2019-04-11T03:35:09.150Z,79.42
2019-04-11T03:36:08.730Z,79.38
2019-04-11T03:37:01.174Z,79.40
2019-04-11T03:38:05.873Z,79.43
2019-04-11T03:39:01.747Z,79.45
2019-04-11T03:39:52.698Z,79.46
2019-04-11T03:40:38.673Z,79.48
2019-04-11T03:41:23.544Z,79.48
2019-04-11T03:42:18.657Z,79.50
2019-04-11T03:43:04.226Z,79.52
2019-04-11T03:43:50.866Z,79.52
2019-04-11T03:44:38.364Z,79.54
2019-04-11T03:45:46.726Z,79.56
2019-04-11T03:46:30.835Z,79.57
2019-04-11T03:47:16.674Z,79.60
2019-04-11T03:48:10.963Z,79.62
2019-04-11T03:48:55.691Z,79.63
2019-04-11T03:49:44.741Z,79.65
2019-04-11T03:50:30.610Z,79.67
2019-04-11T03:51:18.732Z,79.69
2019-04-11T03:52:10.586Z,79.70
2019-04-11T03:53:01.411Z,79.72
2019-04-11T03:53:51.678Z,79.72
2019-04-11T03:54:49.449Z,79.73
2019-04-11T03:55:39.052Z,79.72
2019-04-11T03:56:30.427Z,79.71
2019-04-11T03:57:21.602Z,79.72
2019-04-11T03:58:13.108Z,79.72
2019-04-11T03:59:04.074Z,79.72
2019-04-11T03:59:54.520Z,79.72
2019-04-11T04:00:46.513Z,79.72
2019-04-11T04:01:37.982Z,79.74
2019-04-11T04:02:26.628Z,79.72
2019-04-11T04:03:18.235Z,79.72
2019-04-11T04:04:08.942Z,79.71
2019-04-11T04:04:59.220Z,79.66
2019-04-11T04:05:48.807Z,79.57
2019-04-11T04:06:39.499Z,79.48
2019-04-11T04:07:32.005Z,79.44
2019-04-11T04:08:22.444Z,79.43
2019-04-11T04:09:13.072Z,79.43
2019-04-11T04:10:03.558Z,79.43
2019-04-11T04:11:06.074Z,79.42
2019-04-11T04:11:56.858Z,79.42
2019-04-11T04:12:47.521Z,79.44
2019-04-11T04:13:38.984Z,79.44
2019-04-11T04:14:34.382Z,79.45
2019-04-11T04:15:53.806Z,79.45
2019-04-11T04:16:46.973Z,79.44
2019-04-11T04:18:00.106Z,79.43
2019-04-11T04:19:01.564Z,79.44
2019-04-11T04:20:10.930Z,79.42
2019-04-11T04:21:22.665Z,79.41
2019-04-11T04:22:22.153Z,79.42
2019-04-11T04:23:19.100Z,79.44
2019-04-11T04:24:34.210Z,79.49
2019-04-11T04:25:21.373Z,79.51
2019-04-11T04:26:12.329Z,79.53
2019-04-11T04:27:04.279Z,79.57
2019-04-11T04:27:56.899Z,79.59
2019-04-11T04:28:47.659Z,79.62
2019-04-11T04:29:41.135Z,79.65
2019-04-11T04:30:30.002Z,79.69
2019-04-11T04:31:22.245Z,79.75
2019-04-11T04:32:12.068Z,79.75
2019-04-11T04:33:02.915Z,79.78
2019-04-11T04:33:53.404Z,79.81
2019-04-11T04:34:44.315Z,79.80
2019-04-11T04:35:36.357Z,79.80
2019-04-11T04:36:27.285Z,79.80
2019-04-11T04:37:16.249Z,79.78
2019-04-11T04:38:07.540Z,79.81
2019-04-11T04:38:59.281Z,79.86
2019-04-11T04:39:51.826Z,79.91
2019-04-11T04:40:57.047Z,79.91
2019-04-11T04:41:39.201Z,79.89
2019-04-11T04:42:31.506Z,79.88
2019-04-11T04:43:14.640Z,79.89
2019-04-11T04:44:06.464Z,79.89
2019-04-11T04:44:58.285Z,79.89
2019-04-11T04:46:04.937Z,79.93
2019-04-11T04:46:54.789Z,79.92
2019-04-11T04:47:39.752Z,79.93
2019-04-11T04:48:24.319Z,79.95
2019-04-11T04:49:13.678Z,79.94
2019-04-11T04:50:06.165Z,79.94
2019-04-11T04:50:57.628Z,79.96
2019-04-11T04:51:47.792Z,79.99
2019-04-11T04:52:38.180Z,79.99
2019-04-11T04:53:28.630Z,80.00
2019-04-11T04:54:22.031Z,80.00
2019-04-11T04:55:12.435Z,79.99
2019-04-11T04:56:02.657Z,79.98
2019-04-11T04:56:54.497Z,80.01
2019-04-11T04:57:44.951Z,79.99
2019-04-11T04:58:35.358Z,79.98
2019-04-11T04:59:25.385Z,79.96
2019-04-11T05:00:18.668Z,79.82
2019-04-11T05:01:07.154Z,79.80
2019-04-11T05:01:57.234Z,79.79
2019-04-11T05:02:48.011Z,79.79
2019-04-11T05:03:40.422Z,79.77
2019-04-11T05:04:29.831Z,79.77
2019-04-11T05:05:21.984Z,79.78
2019-04-11T05:06:12.018Z,79.78
2019-04-11T05:07:03.268Z,79.78
2019-04-11T05:07:54.221Z,79.79
2019-04-11T05:08:47.163Z,79.77
2019-04-11T05:09:38.538Z,79.71
2019-04-11T05:10:30.608Z,79.70
2019-04-11T05:11:23.151Z,79.68
2019-04-11T05:12:11.983Z,79.69
2019-04-11T05:13:03.548Z,79.71
2019-04-11T05:13:54.485Z,79.71
2019-04-11T05:14:47.762Z,79.70
2019-04-11T05:15:36.895Z,79.70
2019-04-11T05:16:27.830Z,79.65
2019-04-11T05:17:19.221Z,79.59
2019-04-11T05:18:10.897Z,79.43
2019-04-11T05:18:59.485Z,79.34
2019-04-11T05:19:54.410Z,79.34
2019-04-11T05:20:46.343Z,79.32
2019-04-11T05:21:38.891Z,79.31
2019-04-11T05:22:29.352Z,79.29
2019-04-11T05:23:21.444Z,79.29
2019-04-11T05:24:12.572Z,79.26
2019-04-11T05:25:03.847Z,79.26
2019-04-11T05:25:53.703Z,79.23
2019-04-11T05:26:44.487Z,79.20
2019-04-11T05:27:35.825Z,79.16
2019-04-11T05:28:27.614Z,79.15
2019-04-11T05:29:17.423Z,79.14
2019-04-11T05:30:08.387Z,79.15
2019-04-11T05:30:58.874Z,79.16
2019-04-11T05:31:51.161Z,79.18
2019-04-11T05:32:41.654Z,79.22
2019-04-11T05:33:32.692Z,79.20
2019-04-11T05:34:23.844Z,79.21
2019-04-11T05:35:14.641Z,79.20
2019-04-11T05:36:06.018Z,79.20
2019-04-11T05:36:57.626Z,79.20
2019-04-11T05:37:48.891Z,79.17
2019-04-11T05:38:40.083Z,79.17
2019-04-11T05:39:31.720Z,79.16
2019-04-11T05:40:22.291Z,79.12
2019-04-11T05:41:13.900Z,79.08
2019-04-11T05:42:05.103Z,79.03
2019-04-11T05:42:55.707Z,78.99
2019-04-11T05:43:47.329Z,78.96
2019-04-11T05:44:38.296Z,78.66
2019-04-11T05:45:28.237Z,78.66
2019-04-11T05:46:31.114Z,78.61
2019-04-11T05:47:14.538Z,78.54
2019-04-11T05:48:01.510Z,78.42
2019-04-11T05:49:07.184Z,78.27
2019-04-11T05:50:12.916Z,78.28
2019-04-11T05:51:00.430Z,78.28
2019-04-11T05:52:04.069Z,78.28
2019-04-11T05:52:54.815Z,78.24
2019-04-11T05:53:48.587Z,78.00
2019-04-11T05:54:43.136Z,78.00
2019-04-11T05:55:41.525Z,77.88
2019-04-11T05:56:29.969Z,77.82
2019-04-11T05:57:23.790Z,77.69
2019-04-11T05:58:14.294Z,77.66
2019-04-11T05:59:17.208Z,77.55
2019-04-11T06:00:09.707Z,77.52
2019-04-11T06:01:05.407Z,77.47
2019-04-11T06:02:04.367Z,77.44
2019-04-11T06:02:57.530Z,77.23
2019-04-11T06:03:49.278Z,76.89
2019-04-11T06:04:42.841Z,76.95
2019-04-11T06:05:40.852Z,76.97
2019-04-11T06:06:40.171Z,77.02
2019-04-11T06:07:40.055Z,77.02
2019-04-11T06:08:30.270Z,77.04
2019-04-11T06:09:23.039Z,77.06
2019-04-11T06:10:19.848Z,76.95
2019-04-11T06:11:16.502Z,76.85
2019-04-11T06:12:21.684Z,76.75
2019-04-11T06:13:18.319Z,76.58
2019-04-11T06:14:39.752Z,75.92
2019-04-11T06:15:36.292Z,75.44
2019-04-11T06:16:36.124Z,75.46
2019-04-11T06:17:18.501Z,75.48
2019-04-11T06:18:27.000Z,75.30
2019-04-11T06:19:22.914Z,73.00
2019-04-11T06:20:45.212Z,70.96
2019-04-11T06:21:38.059Z,70.57
2019-04-11T06:22:29.675Z,70.60
2019-04-11T06:23:54.260Z,70.50
2019-04-11T06:25:11.242Z,70.62
2019-04-11T06:26:11.738Z,70.65
2019-04-11T06:27:14.238Z,71.01
2019-04-11T06:28:11.800Z,70.67
2019-04-11T06:29:17.163Z,70.86
2019-04-11T06:30:18.244Z,70.92
2019-04-11T06:31:31.898Z,70.97
2019-04-11T06:32:41.248Z,71.09
2019-04-11T06:33:37.901Z,71.22
2019-04-11T06:34:30.500Z,71.23
2019-04-11T06:35:37.837Z,71.23
2019-04-11T06:36:48.260Z,71.25
2019-04-11T06:37:59.619Z,71.33
2019-04-11T06:38:58.696Z,71.36
2019-04-11T06:39:59.756Z,70.77
2019-04-11T06:40:56.363Z,70.75
2019-04-11T06:42:13.063Z,70.75
2019-04-11T06:43:21.878Z,70.60
2019-04-11T06:44:35.356Z,70.36
2019-04-11T06:45:54.442Z,69.99
2019-04-11T06:47:08.221Z,69.71
2019-04-11T06:48:17.806Z,69.59
2019-04-11T06:49:26.932Z,69.66
2019-04-11T06:50:46.972Z,69.52
2019-04-11T06:51:42.842Z,69.49
2019-04-11T06:52:34.953Z,69.44
2019-04-11T06:53:32.170Z,69.41
2019-04-11T06:54:33.221Z,69.46
2019-04-11T06:55:42.677Z,69.55
2019-04-11T06:56:39.299Z,69.36
2019-04-11T06:57:32.017Z,69.35
2019-04-11T06:58:29.752Z,69.29
2019-04-11T06:59:36.698Z,69.39
2019-04-11T07:00:29.246Z,68.50
2019-04-11T07:01:25.763Z,67.88
2019-04-11T07:02:19.632Z,67.88
2019-04-11T07:03:17.942Z,67.78
2019-04-11T07:04:17.872Z,67.92
2019-04-11T07:05:09.052Z,67.80
2019-04-11T07:06:01.439Z,67.44
2019-04-11T07:06:54.050Z,67.74
2019-04-11T07:07:49.472Z,67.92
2019-04-11T07:08:49.049Z,67.58
2019-04-11T07:10:02.088Z,66.53
2019-04-11T07:10:56.494Z,66.38
2019-04-11T07:11:50.796Z,65.67
2019-04-11T07:12:57.276Z,65.84
2019-04-11T07:13:58.642Z,66.03
2019-04-11T07:15:07.523Z,66.36
2019-04-11T07:15:58.302Z,66.57
2019-04-11T07:17:09.550Z,66.51
2019-04-11T07:18:16.794Z,66.12
2019-04-11T07:19:39.423Z,66.22
2019-04-11T07:21:02.900Z,66.26
2019-04-11T07:21:53.205Z,66.46
2019-04-11T07:23:02.186Z,66.72
2019-04-11T07:24:11.761Z,66.90
2019-04-11T07:25:20.266Z,66.70
2019-04-11T07:26:37.332Z,66.33
2019-04-11T07:27:28.154Z,66.35
2019-04-11T07:28:37.454Z,66.60
2019-04-11T07:30:00.303Z,66.82
2019-04-11T07:31:10.545Z,67.09
2019-04-11T07:32:06.958Z,67.22
2019-04-11T07:33:08.002Z,67.32
2019-04-11T07:34:17.535Z,67.29
2019-04-11T07:35:27.701Z,66.80
2019-04-11T07:36:36.087Z,66.56
2019-04-11T07:37:38.501Z,66.28
2019-04-11T07:38:36.510Z,66.27
2019-04-11T07:39:44.975Z,66.11
2019-04-11T07:40:54.527Z,66.10
2019-04-11T07:42:02.289Z,66.17
2019-04-11T07:43:19.699Z,66.37
2019-04-11T07:44:10.953Z,66.37
2019-04-11T07:45:04.211Z,65.87
2019-04-11T07:46:24.613Z,65.97
2019-04-11T07:47:26.330Z,66.03
2019-04-11T07:48:17.444Z,65.98
2019-04-11T07:49:08.648Z,65.91
2019-04-11T07:50:00.665Z,66.05
2019-04-11T07:50:54.145Z,66.17
2019-04-11T07:51:46.903Z,66.10
2019-04-11T07:52:46.935Z,66.12
2019-04-11T07:53:40.009Z,66.04
2019-04-11T07:54:30.731Z,65.73
2019-04-11T07:55:23.666Z,65.63
2019-04-11T07:56:30.106Z,65.71
2019-04-11T07:57:28.999Z,65.71
2019-04-11T07:58:25.118Z,65.87
2019-04-11T07:59:33.885Z,65.71
2019-04-11T08:00:44.190Z,65.71
2019-04-11T08:01:54.976Z,65.76
2019-04-11T08:03:04.214Z,65.77
2019-04-11T08:04:15.590Z,65.55
2019-04-11T08:05:24.955Z,64.02
2019-04-11T08:06:28.861Z,62.94
2019-04-11T08:07:49.037Z,63.54
2019-04-11T08:08:56.235Z,63.63
2019-04-11T08:09:57.161Z,64.04
2019-04-11T08:10:55.683Z,64.32
2019-04-11T08:11:52.618Z,64.40
2019-04-11T08:12:45.578Z,64.55
2019-04-11T08:13:45.633Z,64.72
2019-04-11T08:14:59.325Z,64.83
2019-04-11T08:16:08.442Z,64.93
2019-04-11T08:17:25.952Z,64.66
2019-04-11T08:18:14.688Z,64.70
2019-04-11T08:19:26.913Z,64.77
2019-04-11T08:20:35.992Z,64.85
2019-04-11T08:21:46.093Z,65.02
2019-04-11T08:22:43.252Z,65.16
2019-04-11T08:23:33.874Z,64.91
2019-04-11T08:24:30.293Z,64.95
2019-04-11T08:25:39.864Z,64.55
2019-04-11T08:26:48.647Z,63.56
2019-04-11T08:27:54.706Z,63.40
2019-04-11T08:28:37.251Z,63.51
2019-04-11T08:29:27.177Z,63.85
2019-04-11T08:30:19.064Z,64.13
2019-04-11T08:31:28.769Z,63.81
2019-04-11T08:32:40.074Z,63.09
2019-04-11T08:33:31.473Z,63.53
2019-04-11T08:34:21.926Z,63.91
2019-04-11T08:35:52.939Z,64.16
2019-04-11T08:37:00.495Z,64.32
2019-04-11T08:38:02.826Z,63.99
2019-04-11T08:38:53.036Z,64.01
2019-04-11T08:39:47.142Z,64.06
2019-04-11T08:40:47.083Z,63.84
2019-04-11T08:42:05.198Z,63.68
2019-04-11T08:43:07.157Z,63.90
2019-04-11T08:43:58.103Z,63.85
2019-04-11T08:44:48.742Z,63.14
2019-04-11T08:45:42.873Z,63.19
2019-04-11T08:46:37.286Z,63.46
2019-04-11T08:47:42.875Z,63.45
2019-04-11T08:48:23.240Z,63.73
2019-04-11T08:49:34.868Z,63.96
2019-04-11T08:50:28.382Z,63.81
2019-04-11T08:51:19.167Z,63.07
2019-04-11T08:52:16.003Z,63.08
2019-04-11T08:53:25.065Z,61.06
2019-04-11T08:54:35.520Z,61.63
2019-04-11T08:55:44.648Z,61.83
2019-04-11T08:56:23.107Z,61.71
2019-04-11T08:57:13.841Z,61.55
2019-04-11T08:58:12.554Z,60.28
2019-04-11T08:59:44.067Z,58.66
2019-04-11T09:00:58.508Z,59.16
2019-04-11T09:01:47.224Z,59.54
2019-04-11T09:02:44.975Z,58.27
2019-04-11T09:03:57.375Z,58.34
2019-04-11T09:05:15.746Z,59.25
2019-04-11T09:06:09.984Z,59.52
2019-04-11T09:07:01.142Z,59.29
2019-04-11T09:08:11.363Z,59.75
2019-04-11T09:09:20.908Z,60.16
2019-04-11T09:10:29.175Z,58.90
2019-04-11T09:11:26.547Z,57.42
2019-04-11T09:12:18.441Z,57.85
2019-04-11T09:13:21.316Z,57.82
2019-04-11T09:14:32.492Z,57.23
2019-04-11T09:15:41.901Z,56.50
2019-04-11T09:17:04.489Z,56.33
2019-04-11T09:18:05.733Z,56.25
2019-04-11T09:18:52.374Z,57.43
2019-04-11T09:20:07.475Z,57.51
2019-04-11T09:21:16.046Z,57.67
2019-04-11T09:22:26.302Z,57.38
2019-04-11T09:23:21.693Z,57.24
2019-04-11T09:24:26.269Z,57.44
2019-04-11T09:25:35.005Z,55.32
2019-04-11T09:26:44.389Z,55.55
2019-04-11T09:27:49.162Z,56.56
2019-04-11T09:28:43.923Z,55.33
2019-04-11T09:29:35.681Z,55.82
2019-04-11T09:30:45.231Z,55.87
2019-04-11T09:31:55.938Z,55.66
2019-04-11T09:33:06.714Z,56.32
2019-04-11T09:34:14.610Z,56.69
2019-04-11T09:35:12.463Z,56.75
2019-04-11T09:36:22.474Z,57.11
2019-04-11T09:37:29.420Z,57.27
2019-04-11T09:38:19.752Z,57.11
2019-04-11T09:39:32.439Z,56.57
2019-04-11T09:40:41.884Z,56.66
2019-04-11T09:42:09.981Z,54.99
2019-04-11T09:43:31.893Z,56.05
2019-04-11T09:44:23.058Z,56.49
2019-04-11T09:45:25.740Z,55.68
2019-04-11T09:46:34.502Z,54.95
2019-04-11T09:47:47.685Z,53.82
2019-04-11T09:48:58.031Z,54.66
2019-04-11T09:49:55.834Z,54.95
2019-04-11T09:51:07.854Z,54.94
2019-04-11T09:52:04.347Z,55.27
2019-04-11T09:52:54.561Z,54.45
2019-04-11T09:53:50.817Z,54.66
2019-04-11T09:54:50.515Z,55.29
2019-04-11T09:55:59.101Z,54.87
2019-04-11T09:57:18.548Z,54.45
2019-04-11T09:58:23.188Z,54.20
2019-04-11T09:59:20.724Z,54.84
2019-04-11T10:00:20.574Z,54.76
2019-04-11T10:01:28.830Z,55.21
2019-04-11T10:02:48.423Z,54.93
2019-04-11T10:03:42.946Z,55.15
2019-04-11T10:04:32.002Z,55.53
2019-04-11T10:05:26.549Z,55.10
2019-04-11T10:06:38.819Z,54.78
2019-04-11T10:07:46.275Z,54.87
2019-04-11T10:08:43.666Z,55.21
2019-04-11T10:09:52.439Z,54.18
2019-04-11T10:11:01.676Z,54.46
2019-04-11T10:12:09.598Z,54.41
2019-04-11T10:13:18.735Z,54.90
2019-04-11T10:14:15.539Z,54.92
2019-04-11T10:15:07.173Z,53.78
2019-04-11T10:16:31.998Z,54.33
2019-04-11T10:17:46.404Z,53.59
2019-04-11T10:19:01.862Z,53.89
2019-04-11T10:19:57.057Z,54.40
2019-04-11T10:20:50.860Z,54.79
2019-04-11T10:21:43.749Z,54.84
2019-04-11T10:22:52.373Z,54.61
2019-04-11T10:24:20.641Z,53.41
2019-04-11T10:25:28.880Z,53.37
2019-04-11T10:26:20.310Z,54.06
2019-04-11T10:27:40.644Z,54.57
2019-04-11T10:28:49.503Z,54.91
2019-04-11T10:29:58.867Z,55.18
2019-04-11T10:31:22.593Z,55.21
2019-04-11T10:32:14.922Z,55.31
2019-04-11T10:33:10.823Z,55.34
2019-04-11T10:34:33.528Z,54.71
2019-04-11T10:35:41.037Z,55.06
2019-04-11T10:36:49.726Z,54.97
2019-04-11T10:37:42.202Z,55.09
2019-04-11T10:38:32.898Z,55.28
2019-04-11T10:39:43.698Z,55.31
2019-04-11T10:40:54.947Z,55.12
2019-04-11T10:41:52.383Z,55.07
2019-04-11T10:42:47.561Z,54.90
2019-04-11T10:43:40.358Z,54.62
2019-04-11T10:45:00.305Z,54.06
2019-04-11T10:46:01.397Z,54.19
2019-04-11T10:47:09.974Z,54.27
2019-04-11T10:48:03.199Z,54.55
2019-04-11T10:49:03.416Z,54.62
2019-04-11T10:50:17.515Z,54.71
2019-04-11T10:51:15.230Z,54.92
2019-04-11T10:52:24.531Z,54.61
2019-04-11T10:53:16.290Z,54.77
2019-04-11T10:54:07.380Z,55.02
2019-04-11T10:55:19.757Z,54.67
2019-04-11T10:56:35.674Z,54.59
2019-04-11T10:57:44.686Z,54.41
2019-04-11T10:58:40.693Z,54.76
2019-04-11T10:59:34.367Z,54.94
2019-04-11T11:00:35.586Z,54.83
2019-04-11T11:02:02.846Z,54.87
2019-04-11T11:03:22.409Z,54.87
2019-04-11T11:04:32.523Z,54.79
2019-04-11T11:05:24.315Z,54.38
2019-04-11T11:06:17.710Z,53.69
2019-04-11T11:07:14.794Z,53.73
2019-04-11T11:08:25.860Z,54.06
2019-04-11T11:09:39.365Z,54.12
2019-04-11T11:10:33.396Z,53.92
2019-04-11T11:11:28.383Z,53.89
2019-04-11T11:12:37.144Z,53.73
2019-04-11T11:14:00.429Z,54.10
2019-04-11T11:15:11.489Z,54.37
2019-04-11T11:16:02.772Z,54.81
2019-04-11T11:17:04.527Z,55.13
2019-04-11T11:18:38.135Z,55.37
2019-04-11T11:19:48.731Z,54.90
2019-04-11T11:20:43.016Z,54.51
2019-04-11T11:21:33.823Z,54.89
2019-04-11T11:22:34.469Z,55.24
2019-04-11T11:23:41.080Z,55.27
2019-04-11T11:25:00.160Z,55.31
2019-04-11T11:26:23.310Z,55.46
2019-04-11T11:27:13.802Z,55.11
2019-04-11T11:28:05.261Z,55.65
2019-04-11T11:29:15.174Z,56.16
2019-04-11T11:30:23.090Z,56.14
2019-04-11T11:31:22.354Z,56.46
2019-04-11T11:32:35.879Z,56.25
2019-04-11T11:33:28.393Z,56.54
2019-04-11T11:34:26.196Z,56.65
2019-04-11T11:35:37.072Z,56.34
2019-04-11T11:36:47.897Z,56.03
2019-04-11T11:37:47.188Z,55.98
2019-04-11T11:38:37.737Z,56.55
2019-04-11T11:39:35.243Z,56.71
2019-04-11T11:40:44.817Z,56.94
2019-04-11T11:41:54.529Z,56.78
2019-04-11T11:43:03.144Z,56.70
2019-04-11T11:43:53.360Z,56.80
2019-04-11T11:44:55.696Z,57.05
2019-04-11T11:45:56.740Z,57.23
2019-04-11T11:47:05.228Z,57.52
2019-04-11T11:48:13.626Z,57.74
2019-04-11T11:49:29.611Z,58.11
2019-04-11T11:50:10.520Z,58.15
2019-04-11T11:51:03.388Z,58.18
2019-04-11T11:52:13.143Z,58.25
2019-04-11T11:53:35.990Z,58.43
2019-04-11T11:54:48.946Z,58.99
2019-04-11T11:55:39.557Z,58.85
2019-04-11T11:56:31.553Z,59.40
2019-04-11T11:57:35.087Z,59.93
2019-04-11T11:58:45.249Z,59.91
2019-04-11T11:59:45.819Z,60.11
2019-04-11T12:00:37.258Z,59.59
2019-04-11T12:01:29.551Z,59.72
2019-04-11T12:02:26.977Z,59.85
2019-04-11T12:03:37.135Z,59.80
2019-04-11T12:04:46.473Z,59.71
2019-04-11T12:05:50.851Z,60.03
2019-04-11T12:06:40.914Z,60.48
2019-04-11T12:07:43.068Z,60.57
2019-04-11T12:08:49.761Z,60.54
2019-04-11T12:10:13.732Z,60.78
2019-04-11T12:11:08.107Z,60.76
2019-04-11T12:12:02.907Z,60.70
2019-04-11T12:13:08.539Z,60.61
2019-04-11T12:14:22.364Z,60.71
2019-04-11T12:15:30.220Z,61.08
2019-04-11T12:16:25.832Z,61.16
2019-04-11T12:17:40.589Z,61.45
2019-04-11T12:19:04.620Z,61.18
2019-04-11T12:20:06.407Z,61.08
2019-04-11T12:20:59.040Z,60.88